Time;durP1;ratioP1;P1;durP2;ratioP2;P2;SDS_P1;SDS_P2;PMS_P1;PMS_P2;Temp;Humidity;BMP_temperature;BMP_pressure;BME280_temperature;BME280_humidity;BME280_pressure;Samples;Min_cycle;Max_cycle;Signal;HPM_P1;HPM_P2
2021/03/22 00:01:49;;;;;;;26.75;12.43;;;;;;;0.09;85.01;99438.78;5096564;28;20055;-54
2021/03/22 00:04:14;;;;;;;33.78;16.02;;;;;;;0.05;85.55;99442.19;5096218;28;20124;-54
2021/03/22 00:06:40;;;;;;;55.70;24.10;;;;;;;0.01;85.50;99446.44;5096847;28;20410;-54
2021/03/22 00:09:06;;;;;;;52.97;22.23;;;;;;;-0.02;85.48;99448.97;5096352;28;20056;-55
2021/03/22 00:11:32;;;;;;;37.28;17.73;;;;;;;-0.03;85.48;99448.13;5095664;28;20040;-54
2021/03/22 00:13:58;;;;;;;44.50;20.60;;;;;;;-0.05;85.52;99447.22;5097295;28;20432;-54
2021/03/22 00:16:24;;;;;;;38.75;15.95;;;;;;;-0.04;85.56;99438.63;5096694;28;20067;-54
2021/03/22 00:18:49;;;;;;;45.45;19.30;;;;;;;-0.02;85.35;99439.53;5096930;28;20437;-55
2021/03/22 00:21:15;;;;;;;52.28;20.55;;;;;;;-0.04;84.94;99448.94;5096294;28;20124;-54
2021/03/22 00:23:41;;;;;;;50.80;19.70;;;;;;;-0.13;85.23;99445.41;5096522;28;20050;-55
2021/03/22 00:26:07;;;;;;;47.25;20.73;;;;;;;-0.15;85.53;99453.13;5096261;28;20186;-55
2021/03/22 00:28:38;;;;;;;57.97;21.88;;;;;;;-0.12;85.42;99452.28;5096475;28;20127;-54
2021/03/22 00:31:06;;;;;;;58.95;22.08;;;;;;;-0.15;85.12;99450.53;5095314;28;20040;-54
2021/03/22 00:33:32;;;;;;;56.75;22.20;;;;;;;-0.16;85.29;99450.50;5096124;28;20078;-55
2021/03/22 00:35:58;;;;;;;61.60;25.55;;;;;;;-0.22;85.10;99456.47;5096375;28;20058;-55
2021/03/22 00:38:23;;;;;;;57.15;24.35;;;;;;;-0.18;84.90;99459.94;5096140;28;20115;-55
2021/03/22 00:40:49;;;;;;;43.97;17.55;;;;;;;-0.25;84.73;99467.56;5096629;28;20044;-54
2021/03/22 00:43:15;;;;;;;41.28;15.82;;;;;;;-0.28;84.56;99466.69;5095136;28;20107;-54
2021/03/22 00:45:41;;;;;;;43.50;15.05;;;;;;;-0.32;84.58;99472.63;5096072;28;20358;-54
2021/03/22 00:48:07;;;;;;;59.55;23.90;;;;;;;-0.34;84.61;99474.31;5095908;28;20048;-54
2021/03/22 00:50:40;;;;;;;54.15;19.08;;;;;;;-0.35;84.80;99486.31;5096088;28;20037;-54
2021/03/22 00:53:06;;;;;;;43.78;15.77;;;;;;;-0.41;84.93;99481.09;5095158;28;20074;-54
2021/03/22 00:55:32;;;;;;;35.72;13.75;;;;;;;-0.48;85.03;99469.84;5095099;28;20040;-54
2021/03/22 00:57:58;;;;;;;33.60;13.00;;;;;;;-0.49;85.42;99483.56;5095028;28;20078;-54
2021/03/22 01:00:26;;;;;;;27.05;11.18;;;;;;;-0.49;85.83;99477.53;5095918;28;20450;-54
2021/03/22 01:02:51;;;;;;;29.27;12.02;;;;;;;-0.47;85.89;99479.28;5096103;28;20040;-54
2021/03/22 01:05:17;;;;;;;34.53;13.18;;;;;;;-0.50;85.82;99481.81;5095239;28;20062;-54
2021/03/22 01:07:44;;;;;;;29.85;12.40;;;;;;;-0.51;86.07;99472.38;5096013;28;20465;-54
2021/03/22 01:10:20;;;;;;;34.88;13.93;;;;;;;-0.44;86.05;99482.75;5095844;28;20044;-54
2021/03/22 01:12:46;;;;;;;30.80;12.68;;;;;;;-0.45;85.68;99479.31;5096087;28;20064;-54
2021/03/22 01:15:12;;;;;;;29.65;11.15;;;;;;;-0.51;86.08;99486.94;5096063;28;20059;-54
2021/03/22 01:17:38;;;;;;;30.00;11.38;;;;;;;-0.53;86.13;99479.19;5096056;28;20117;-54
2021/03/22 01:20:11;;;;;;;28.20;10.65;;;;;;;-0.50;86.06;99473.22;5096019;28;20462;-55
2021/03/22 01:22:37;;;;;;;24.02;9.18;;;;;;;-0.58;86.09;99468.00;5095614;28;20382;-54
2021/03/22 01:25:05;;;;;;;32.90;12.85;;;;;;;-0.53;86.10;99471.47;5095870;28;20048;-54
2021/03/22 01:27:31;;;;;;;24.30;10.18;;;;;;;-0.55;85.80;99460.31;5094791;28;20354;-54
2021/03/22 01:29:57;;;;;;;24.50;9.02;;;;;;;-0.56;85.72;99463.72;5095598;28;20048;-54
2021/03/22 01:32:23;;;;;;;24.73;10.00;;;;;;;-0.55;85.47;99459.47;5095790;28;20063;-54
2021/03/22 01:34:48;;;;;;;20.05;8.25;;;;;;;-0.64;85.30;99455.03;5095646;28;20048;-54
2021/03/22 01:37:14;;;;;;;26.25;10.02;;;;;;;-0.62;85.38;99455.91;5095601;28;20449;-54
2021/03/22 01:39:40;;;;;;;23.05;9.20;;;;;;;-0.58;85.24;99461.97;5095232;28;20040;-54
2021/03/22 01:42:12;;;;;;;21.67;10.30;;;;;;;-0.61;85.42;99462.78;5061635;28;20058;-54
2021/03/22 01:44:42;;;;;;;19.05;8.05;;;;;;;-0.62;85.22;99460.19;5099815;28;20040;-54
2021/03/22 01:47:17;;;;;;;21.27;8.90;;;;;;;-0.65;84.93;99460.13;5082374;28;20052;-54
2021/03/22 01:49:56;;;;;;;21.13;9.05;;;;;;;-0.65;85.04;99455.88;5082068;28;20406;-54
2021/03/22 01:52:22;;;;;;;23.83;8.95;;;;;;;-0.69;85.17;99451.53;5098419;28;20048;-54
2021/03/22 01:54:48;;;;;;;18.52;8.40;;;;;;;-0.66;85.07;99451.56;5098254;28;20054;-54
2021/03/22 01:57:36;;;;;;;22.05;8.80;;;;;;;-0.69;85.33;99455.81;5098171;28;20353;-54
2021/03/22 02:00:15;;;;;;;21.10;7.60;;;;;;;-0.68;85.45;99454.94;5099308;28;20108;-54
2021/03/22 02:02:42;;;;;;;20.75;8.75;;;;;;;-0.66;85.29;99459.28;5099176;28;20052;-54
2021/03/22 02:05:10;;;;;;;26.40;10.02;;;;;;;-0.65;85.32;99455.00;5081293;28;20040;-54
2021/03/22 02:07:35;;;;;;;29.45;12.05;;;;;;;-0.66;85.24;99461.84;5097982;28;20059;-54
2021/03/22 02:10:02;;;;;;;31.98;13.50;;;;;;;-0.60;85.27;99456.81;5097976;28;20036;-54
2021/03/22 02:12:29;;;;;;;26.45;11.82;;;;;;;-0.54;84.90;99456.03;5097895;28;20040;-54
2021/03/22 02:14:55;;;;;;;23.85;9.85;;;;;;;-0.56;84.69;99455.13;5098111;28;20044;-54
2021/03/22 02:17:49;;;;;;;23.60;9.18;;;;;;;-0.52;84.94;99468.06;5098369;28;20105;-54
2021/03/22 02:20:36;;;;;;;29.67;11.70;;;;;;;-0.53;85.48;99458.59;5097958;28;20043;-54
2021/03/22 02:23:08;;;;;;;37.55;13.15;;;;;;;-0.50;85.30;99455.22;5097579;28;20112;-54
2021/03/22 02:26:01;;;;;;;37.08;13.00;;;;;;;-0.44;85.01;99451.88;5097697;28;20396;-54
2021/03/22 02:28:45;;;;;;;31.95;13.38;;;;;;;-0.40;84.76;99458.78;5096608;28;20063;-54
2021/03/22 02:31:32;;;;;;;30.67;11.73;;;;;;;-0.39;84.57;99456.25;5081625;28;20060;-54
2021/03/22 02:34:09;;;;;;;38.72;13.88;;;;;;;-0.34;84.50;99462.31;5098625;28;20123;-54
2021/03/22 02:37:09;;;;;;;42.40;16.33;;;;;;;-0.33;84.14;99469.16;5097718;28;20121;-54
2021/03/22 02:39:41;;;;;;;32.83;12.82;;;;;;;-0.35;84.45;99463.16;5098207;28;20044;-54
2021/03/22 02:42:07;;;;;;;34.70;13.00;;;;;;;-0.27;84.24;99460.66;5097593;28;20052;-54
2021/03/22 02:44:35;;;;;;;38.20;16.05;;;;;;;-0.22;83.95;99463.31;5080464;28;20407;-54
2021/03/22 02:47:20;;;;;;;29.83;13.75;;;;;;;-0.20;83.80;99459.91;5098639;28;20047;-54
2021/03/22 02:49:46;;;;;;;23.67;10.85;;;;;;;-0.18;83.78;99467.66;5098056;28;20358;-54
2021/03/22 02:52:30;;;;;;;34.05;12.95;;;;;;;-0.20;83.52;99457.31;5097112;28;20072;-54
2021/03/22 02:55:46;;;;;;;22.40;9.45;;;;;;;-0.19;83.56;99463.38;5097225;28;20437;-54
2021/03/22 02:58:13;;;;;;;18.40;7.72;;;;;;;-0.18;83.67;99458.22;5056000;28;20447;-55
2021/03/22 03:00:46;;;;;;;19.80;8.18;;;;;;;-0.14;83.28;99467.69;5094217;28;20463;-54
2021/03/22 03:03:16;;;;;;;21.55;9.05;;;;;;;-0.17;83.31;99467.66;5097198;28;20059;-54
2021/03/22 03:05:48;;;;;;;19.17;7.95;;;;;;;-0.13;83.47;99471.13;5080623;28;20108;-54
2021/03/22 03:08:13;;;;;;;23.10;8.40;;;;;;;-0.15;83.42;99476.28;5097469;28;20047;-54
2021/03/22 03:10:39;;;;;;;21.38;8.35;;;;;;;-0.15;83.70;99468.56;5097831;28;20051;-54
2021/03/22 03:13:05;;;;;;;19.17;7.20;;;;;;;-0.11;83.63;99483.19;5097535;28;20044;-54
2021/03/22 03:15:31;;;;;;;17.38;7.80;;;;;;;-0.16;83.60;99478.81;5097175;28;20350;-54
2021/03/22 03:17:57;;;;;;;22.02;9.48;;;;;;;-0.12;83.72;99484.03;5096892;28;20040;-54
2021/03/22 03:20:28;;;;;;;20.45;8.10;;;;;;;-0.08;83.53;99484.94;5098220;28;20047;-54
2021/03/22 03:22:54;;;;;;;20.02;8.23;;;;;;;-0.08;83.63;99480.66;5097303;28;20044;-54
2021/03/22 03:25:20;;;;;;;19.15;8.18;;;;;;;-0.06;83.51;99480.69;5097301;28;20052;-54
2021/03/22 03:27:46;;;;;;;20.52;9.63;;;;;;;-0.05;83.38;99479.84;5097572;28;20051;-54
2021/03/22 03:30:15;;;;;;;24.50;10.25;;;;;;;-0.04;83.09;99481.56;5096970;28;20384;-54
2021/03/22 03:32:40;;;;;;;25.92;9.75;;;;;;;-0.05;83.07;99485.84;5097420;28;20143;-54
2021/03/22 03:35:07;;;;;;;23.17;8.65;;;;;;;-0.02;83.01;99485.88;5096168;28;20051;-54
2021/03/22 03:37:33;;;;;;;20.52;8.95;;;;;;;0.01;83.00;99485.06;5096531;28;20072;-54
2021/03/22 03:39:59;;;;;;;24.13;9.85;;;;;;;0.07;82.79;99487.72;5096468;28;20105;-54
2021/03/22 03:42:25;;;;;;;16.85;8.10;;;;;;;0.06;82.47;99498.84;5097275;28;20044;-54
2021/03/22 03:44:51;;;;;;;16.05;7.45;;;;;;;0.03;82.51;99483.34;5096342;28;20082;-54
2021/03/22 03:47:16;;;;;;;20.85;7.65;;;;;;;0.07;82.53;99489.44;5096353;28;20086;-54
2021/03/22 03:49:42;;;;;;;23.67;9.07;;;;;;;0.03;82.44;99482.50;5096889;28;20040;-54
2021/03/22 03:52:08;;;;;;;21.73;7.18;;;;;;;0.06;82.46;99488.53;5097135;28;20058;-54
2021/03/22 03:54:34;;;;;;;16.30;8.13;;;;;;;0.07;82.00;99486.88;5097078;28;20067;-55
2021/03/22 03:57:00;;;;;;;22.13;8.35;;;;;;;0.09;82.00;99480.00;5097046;28;20433;-55
2021/03/22 03:59:26;;;;;;;19.42;7.38;;;;;;;0.09;81.92;99486.00;5096723;28;20327;-54
2021/03/22 04:01:52;;;;;;;16.48;6.93;;;;;;;0.09;81.83;99487.72;5096592;28;20101;-54
2021/03/22 04:04:18;;;;;;;21.70;9.38;;;;;;;0.09;81.79;99492.88;5097156;28;20410;-54
2021/03/22 04:06:44;;;;;;;20.95;8.05;;;;;;;0.09;81.73;99490.31;5096200;28;20048;-53
2021/03/22 04:09:10;;;;;;;19.90;9.10;;;;;;;0.05;81.61;99498.84;5096533;28;20048;-54
2021/03/22 04:11:40;;;;;;;19.30;7.50;;;;;;;0.10;81.85;99499.75;5096793;28;20055;-54
2021/03/22 04:14:13;;;;;;;18.48;8.20;;;;;;;0.08;81.87;99501.47;5095640;28;20047;-54
2021/03/22 04:16:39;;;;;;;22.75;8.20;;;;;;;-0.02;82.24;99493.59;5096781;28;20044;-55
2021/03/22 04:19:04;;;;;;;21.42;9.13;;;;;;;0.05;82.50;99499.69;5096423;28;20441;-54
2021/03/22 04:21:31;;;;;;;19.20;8.00;;;;;;;0.05;82.46;99502.28;5096639;28;20105;-55
2021/03/22 04:23:58;;;;;;;25.83;10.50;;;;;;;-0.03;82.49;99499.63;5096495;28;20040;-55
2021/03/22 04:26:23;;;;;;;23.17;9.90;;;;;;;-0.01;82.52;99502.19;5096295;28;20059;-54
2021/03/22 04:28:49;;;;;;;25.88;10.73;;;;;;;0.04;82.68;99505.72;5096533;28;20339;-54
2021/03/22 04:31:16;;;;;;;28.10;9.90;;;;;;;0.10;82.45;99507.47;5096224;28;20123;-54
2021/03/22 04:33:42;;;;;;;24.23;10.73;;;;;;;0.10;82.25;99516.09;5096464;28;20051;-54
2021/03/22 04:36:09;;;;;;;19.10;9.00;;;;;;;0.14;82.24;99511.84;5096443;28;20444;-55
2021/03/22 04:38:35;;;;;;;20.95;8.40;;;;;;;0.16;82.03;99518.75;5096470;28;20040;-55
2021/03/22 04:41:01;;;;;;;20.92;9.35;;;;;;;0.15;82.04;99517.00;5096132;28;20051;-54
2021/03/22 04:43:27;;;;;;;25.40;10.38;;;;;;;0.17;81.98;99517.03;5096288;28;20054;-54
2021/03/22 04:45:52;;;;;;;21.75;11.13;;;;;;;0.19;81.78;99518.75;5096055;28;20044;-55
2021/03/22 04:48:18;;;;;;;22.90;10.63;;;;;;;0.21;81.63;99521.38;5096333;28;20047;-55
2021/03/22 04:50:44;;;;;;;23.63;11.13;;;;;;;0.21;81.52;99521.38;5096327;28;20044;-54
2021/03/22 04:53:10;;;;;;;21.75;11.05;;;;;;;0.20;81.41;99523.06;5096126;28;20481;-54
2021/03/22 04:55:35;;;;;;;25.48;11.25;;;;;;;0.20;81.56;99528.22;5096315;28;20084;-44
2021/03/22 04:58:01;;;;;;;19.77;9.18;;;;;;;0.20;81.58;99535.09;5095937;28;20056;-44
2021/03/22 05:00:28;;;;;;;21.23;9.80;;;;;;;0.20;81.58;99535.97;5095871;28;20055;-43
2021/03/22 05:02:55;;;;;;;23.38;10.40;;;;;;;0.23;81.60;99530.84;5095002;28;20097;-43
2021/03/22 05:05:21;;;;;;;20.55;8.93;;;;;;;0.26;81.48;99534.28;5096286;28;20059;-44
2021/03/22 05:07:47;;;;;;;20.95;9.40;;;;;;;0.28;81.38;99535.19;5096038;28;20481;-43
2021/03/22 05:10:21;;;;;;;19.25;8.20;;;;;;;0.31;81.33;99535.22;5096412;28;20044;-44
2021/03/22 05:12:46;;;;;;;20.70;8.27;;;;;;;0.29;81.38;99536.91;5095269;28;20056;-43
2021/03/22 05:15:12;;;;;;;26.02;9.75;;;;;;;0.17;81.73;99543.66;5095215;28;20112;-43
2021/03/22 05:17:38;;;;;;;23.23;9.52;;;;;;;0.15;82.03;99547.03;5096753;28;20400;-43
2021/03/22 05:20:07;;;;;;;20.10;8.40;;;;;;;0.19;82.07;99552.25;5099734;28;20048;-43
2021/03/22 05:22:33;;;;;;;23.05;8.10;;;;;;;0.26;81.94;99544.59;5098769;28;20051;-43
2021/03/22 05:24:58;;;;;;;18.80;8.35;;;;;;;0.18;81.97;99542.78;5099556;28;20044;-43
2021/03/22 05:27:24;;;;;;;17.30;8.32;;;;;;;0.22;82.03;99543.69;5099863;28;20073;-43
2021/03/22 05:29:50;;;;;;;24.08;9.15;;;;;;;0.21;81.87;99540.25;5100155;28;20097;-43
2021/03/22 05:32:30;;;;;;;21.88;10.32;;;;;;;0.33;81.56;99541.28;5099804;28;20062;-43
2021/03/22 05:34:56;;;;;;;20.17;8.63;;;;;;;0.28;81.80;99545.47;5099284;28;20043;-43
2021/03/22 05:37:22;;;;;;;19.45;8.93;;;;;;;0.34;81.67;99546.44;5081815;28;20335;-44
2021/03/22 05:39:48;;;;;;;19.92;9.48;;;;;;;0.38;81.64;99539.59;5098617;28;20100;-44
2021/03/22 05:42:29;;;;;;;21.02;8.27;;;;;;;0.47;81.45;99544.84;5099635;28;20048;-44
2021/03/22 05:44:58;;;;;;;22.55;9.85;;;;;;;0.50;81.60;99542.31;5099588;28;20048;-43
2021/03/22 05:47:35;;;;;;;20.13;9.85;;;;;;;0.59;81.49;99537.28;5081848;28;20052;-44
2021/03/22 05:50:08;;;;;;;22.08;10.15;;;;;;;0.64;81.32;99547.63;5098665;28;20052;-43
2021/03/22 05:52:50;;;;;;;20.40;9.07;;;;;;;0.68;81.29;99562.25;5081437;28;20388;-44
2021/03/22 05:55:39;;;;;;;20.90;9.25;;;;;;;0.73;80.96;99564.91;5099458;28;20063;-44
2021/03/22 05:58:08;;;;;;;18.85;9.65;;;;;;;0.76;81.08;99552.91;5098283;28;20055;-44
2021/03/22 06:00:43;;;;;;;19.38;10.10;;;;;;;0.86;80.97;99553.88;5099561;28;20418;-44
2021/03/22 06:03:41;;;;;;;22.52;10.82;;;;;;;0.89;80.77;99553.91;5098939;28;20076;-44
2021/03/22 06:06:21;;;;;;;18.60;10.35;;;;;;;0.94;81.02;99557.38;5064560;28;20350;-44
2021/03/22 06:08:59;;;;;;;19.45;10.80;;;;;;;0.99;81.14;99560.88;5082471;28;20064;-44
2021/03/22 06:11:42;;;;;;;18.30;9.75;;;;;;;1.05;80.61;99560.94;5099180;28;20052;-44
2021/03/22 06:14:13;;;;;;;19.48;8.98;;;;;;;1.12;80.69;99559.28;5098184;28;20106;-43
2021/03/22 06:16:42;;;;;;;19.00;8.93;;;;;;;1.20;80.57;99561.91;5081151;28;20040;-44
2021/03/22 06:19:12;;;;;;;18.40;8.52;;;;;;;1.25;80.37;99558.53;5098130;28;20093;-44
2021/03/22 06:21:40;;;;;;;16.63;8.50;;;;;;;1.36;80.31;99550.84;5098042;28;20052;-44
2021/03/22 06:24:14;;;;;;;22.95;8.82;;;;;;;1.43;79.75;99567.25;5097906;28;20358;-44
2021/03/22 06:26:43;;;;;;;21.33;9.13;;;;;;;1.42;79.52;99573.28;5097579;28;20338;-44
2021/03/22 06:29:17;;;;;;;22.40;9.77;;;;;;;1.45;79.44;99579.34;5097546;28;20464;-44
2021/03/22 06:31:43;;;;;;;21.77;9.45;;;;;;;1.58;79.82;99577.72;5097846;28;20135;-44
2021/03/22 06:34:10;;;;;;;29.52;12.63;;;;;;;1.67;79.55;99587.25;5098647;28;20356;-44
2021/03/22 06:36:36;;;;;;;23.50;11.75;;;;;;;1.74;79.38;99589.03;5097769;28;20055;-44
2021/03/22 06:39:04;;;;;;;30.38;12.32;;;;;;;1.74;78.57;99582.13;5098547;28;20048;-43
2021/03/22 06:41:57;;;;;;;29.25;12.88;;;;;;;1.78;78.40;99591.63;5080588;28;20036;-44
2021/03/22 06:44:31;;;;;;;31.75;11.85;;;;;;;1.79;78.04;99588.22;5096287;28;20049;-44
2021/03/22 06:46:58;;;;;;;28.17;11.52;;;;;;;1.76;77.90;99601.09;5097551;28;20094;-44
2021/03/22 06:49:34;;;;;;;27.08;10.52;;;;;;;1.85;78.01;99603.75;5097471;28;20054;-44
2021/03/22 06:52:03;;;;;;;24.90;10.00;;;;;;;1.95;78.07;99609.84;5097442;28;20090;-44
2021/03/22 06:54:31;;;;;;;24.83;10.55;;;;;;;2.05;78.05;99615.94;5098261;28;20044;-44
2021/03/22 06:57:14;;;;;;;18.15;9.75;;;;;;;2.14;77.89;99615.09;5098159;28;20063;-44
2021/03/22 06:59:40;;;;;;;20.98;10.90;;;;;;;2.05;77.33;99616.78;5097628;28;20127;-44
2021/03/22 07:02:17;;;;;;;24.67;10.18;;;;;;;2.19;76.98;99619.44;5096909;28;20469;-44
2021/03/22 07:04:43;;;;;;;20.88;9.82;;;;;;;2.19;76.92;99624.63;5098468;28;20052;-43
2021/03/22 07:07:14;;;;;;;22.33;9.15;;;;;;;2.20;76.92;99626.34;5097506;28;20101;-44
2021/03/22 07:09:45;;;;;;;24.05;11.23;;;;;;;2.25;76.65;99623.78;5097954;28;20115;-43
2021/03/22 07:12:34;;;;;;;27.33;13.07;;;;;;;2.25;76.54;99622.06;5097220;28;20047;-44
2021/03/22 07:15:33;;;;;;;31.98;14.23;;;;;;;2.33;76.92;99624.69;5097550;28;20040;-44
2021/03/22 07:18:01;;;;;;;26.48;11.23;;;;;;;2.43;76.54;99634.22;5097847;28;20055;-54
2021/03/22 07:20:27;;;;;;;19.48;8.95;;;;;;;2.57;76.78;99632.56;5097686;28;20115;-54
2021/03/22 07:23:23;;;;;;;24.45;11.55;;;;;;;2.58;75.87;99626.53;5097317;28;20044;-54
2021/03/22 07:25:52;;;;;;;21.45;11.27;;;;;;;2.68;75.94;99639.50;5096914;28;20120;-54
2021/03/22 07:28:41;;;;;;;25.73;15.32;;;;;;;2.75;75.38;99647.28;5063348;28;20048;-55
2021/03/22 07:31:23;;;;;;;27.33;12.77;;;;;;;2.81;75.91;99642.16;5097534;28;20056;-55
2021/03/22 07:34:19;;;;;;;41.78;21.33;;;;;;;2.86;75.32;99651.63;5097062;28;20127;-55
2021/03/22 07:37:04;;;;;;;48.83;23.88;;;;;;;2.90;74.83;99648.22;5096541;28;20044;-54
2021/03/22 07:39:52;;;;;;;208.98;68.65;;;;;;;2.85;74.94;99647.34;5097335;28;20129;-55
2021/03/22 07:42:33;;;;;;;147.32;56.13;;;;;;;2.96;75.31;99651.69;5082402;28;20051;-55
2021/03/22 07:45:26;;;;;;;34.00;18.17;;;;;;;2.95;74.66;99659.44;5095879;28;20097;-55
2021/03/22 07:48:02;;;;;;;35.92;17.13;;;;;;;2.90;74.71;99664.59;5096862;28;20357;-55
2021/03/22 07:50:35;;;;;;;30.00;13.07;;;;;;;3.03;74.52;99661.19;5079702;28;20116;-55
2021/03/22 07:53:06;;;;;;;49.78;28.30;;;;;;;3.00;74.17;99662.91;5080248;28;20085;-55
2021/03/22 07:55:49;;;;;;;45.95;22.38;;;;;;;3.08;73.89;99658.59;5096438;28;20113;-55
2021/03/22 07:58:24;;;;;;;;;;;;;;;2.85;73.04;99655.94;5080309;28;20043;-55
2021/03/22 08:01:13;;;;;;;34.13;16.98;;;;;;;3.06;74.44;99659.50;5096923;28;20252;-55
2021/03/22 08:04:14;;;;;;;28.90;13.85;;;;;;;3.20;73.09;99657.78;5081797;28;20426;-55
2021/03/22 08:07:08;;;;;;;27.88;13.15;;;;;;;3.37;73.41;99669.03;5095978;28;20093;-55
2021/03/22 08:10:00;;;;;;;28.50;13.55;;;;;;;3.38;72.73;99665.59;5096940;28;20070;-55
2021/03/22 08:12:52;;;;;;;28.10;13.80;;;;;;;3.46;72.41;99668.19;5095659;28;20418;-55
2021/03/22 08:15:36;;;;;;;72.88;32.35;;;;;;;3.52;73.03;99673.38;5095667;28;20052;-55
2021/03/22 08:18:29;;;;;;;45.00;20.98;;;;;;;3.82;72.36;99666.50;5096632;28;20068;-55
2021/03/22 08:21:18;;;;;;;35.55;16.00;;;;;;;4.00;72.64;99666.50;5096377;28;20051;-55
2021/03/22 08:23:50;;;;;;;32.60;14.48;;;;;;;4.17;71.69;99661.28;5096801;28;20044;-55
2021/03/22 08:26:22;;;;;;;29.55;13.07;;;;;;;4.27;71.30;99665.59;5095687;28;20036;-55
2021/03/22 08:29:06;;;;;;;25.52;12.30;;;;;;;4.21;69.80;99665.59;5079225;28;20075;-55
2021/03/22 08:31:49;;;;;;;62.75;29.02;;;;;;;4.35;70.18;99675.94;5095867;28;20052;-56
2021/03/22 08:34:28;;;;;;;52.22;26.52;;;;;;;4.58;70.09;99678.47;5095578;28;20162;-56
2021/03/22 08:37:17;;;;;;;55.00;39.67;;;;;;;4.86;68.50;99679.25;5095513;28;20051;-56
2021/03/22 08:40:04;;;;;;;38.85;20.63;;;;;;;4.92;69.00;99674.03;5095541;28;20036;-56
2021/03/22 08:42:32;;;;;;;37.63;16.45;;;;;;;4.75;67.82;99688.81;5095601;28;20043;-56
2021/03/22 08:45:11;;;;;;;34.13;16.23;;;;;;;4.88;68.10;99687.91;5095118;28;20036;-56
2021/03/22 08:47:59;;;;;;;48.65;20.23;;;;;;;5.15;67.28;99692.97;5095462;28;20056;-56
2021/03/22 08:50:29;;;;;;;59.78;20.13;;;;;;;5.20;67.09;99699.88;5095436;28;20093;-56
2021/03/22 08:53:11;;;;;;;112.38;26.65;;;;;;;5.26;67.34;99708.47;5097442;28;20496;-56
2021/03/22 08:55:40;;;;;;;128.52;45.97;;;;;;;5.33;67.53;99702.41;5083581;28;20071;-56
2021/03/22 08:58:09;;;;;;;57.88;26.10;;;;;;;5.47;67.42;99712.72;5100093;28;20066;-56
2021/03/22 09:00:37;;;;;;;40.38;17.58;;;;;;;5.52;67.61;99700.53;5100345;28;20074;-56
2021/03/22 09:03:05;;;;;;;36.90;17.15;;;;;;;5.71;67.56;99705.63;5099103;28;20084;-56
2021/03/22 09:05:32;;;;;;;31.35;15.07;;;;;;;5.86;67.66;99702.94;5099437;28;20043;-56
2021/03/22 09:08:22;;;;;;;30.45;13.57;;;;;;;5.97;65.89;99698.53;5099789;28;20052;-56
2021/03/22 09:10:49;;;;;;;28.50;14.05;;;;;;;6.16;66.83;99693.19;5099028;28;20437;-56
2021/03/22 09:13:49;;;;;;;29.40;13.18;;;;;;;6.31;65.59;99687.84;5100382;28;20044;-57
2021/03/22 09:16:24;;;;;;;34.38;14.80;;;;;;;6.30;65.13;99692.19;5091092;28;20060;-57
2021/03/22 09:19:08;;;;;;;49.25;19.58;;;;;;;6.35;64.85;99689.53;5099733;28;20130;-57
2021/03/22 09:21:44;;;;;;;75.78;26.00;;;;;;;6.43;64.27;99692.03;5099999;28;20110;-57
2021/03/22 09:24:40;;;;;;;50.78;21.63;;;;;;;6.59;64.89;99692.75;5098993;28;20337;-57
2021/03/22 09:27:16;;;;;;;36.65;18.75;;;;;;;6.81;63.84;99694.25;5098770;28;20047;-57
2021/03/22 09:29:52;;;;;;;93.53;35.80;;;;;;;6.99;62.29;99691.44;5098973;28;20059;-57
2021/03/22 09:32:24;;;;;;;43.80;21.17;;;;;;;7.12;62.23;99686.94;5099463;28;20063;-57
2021/03/22 09:34:50;;;;;;;44.35;20.13;;;;;;;7.34;61.33;99690.09;5082074;28;20051;-58
2021/03/22 09:37:43;;;;;;;36.28;19.00;;;;;;;7.44;59.56;99693.41;5099700;28;20044;-58
2021/03/22 09:43:05;;;;;;;33.38;17.95;;;;;;;7.96;58.95;99682.19;5098366;28;20481;-58
2021/03/22 09:45:38;;;;;;;24.98;12.70;;;;;;;8.15;56.87;99683.63;5099539;28;20060;-58
2021/03/22 09:48:12;;;;;;;25.27;11.88;;;;;;;8.35;56.45;99680.69;5099551;28;20059;-59
2021/03/22 09:50:38;;;;;;;27.38;12.13;;;;;;;8.62;56.28;99683.69;5098364;28;20077;-59
2021/03/22 09:53:20;;;;;;;27.90;13.38;;;;;;;8.74;54.46;99677.38;5099381;28;20052;-59
2021/03/22 09:55:48;;;;;;;29.90;15.05;;;;;;;9.04;56.04;99688.97;5098823;28;20040;-60
2021/03/22 09:58:35;;;;;;;73.57;33.15;;;;;;;9.43;53.21;99684.63;5099293;28;20059;-59
2021/03/22 10:01:30;;;;;;;27.50;12.52;;;;;;;9.48;52.95;99689.75;5098449;28;20091;-60
2021/03/22 10:04:11;;;;;;;26.63;11.73;;;;;;;9.45;52.71;99684.59;5098467;28;20077;-59
2021/03/22 10:06:47;;;;;;;29.63;12.05;;;;;;;9.72;51.23;99685.72;5099147;28;20048;-60
2021/03/22 10:09:24;;;;;;;20.67;10.43;;;;;;;9.57;51.24;99694.78;5098287;28;20051;-60
2021/03/22 10:11:52;;;;;;;17.35;9.18;;;;;;;9.85;52.17;99695.00;5098799;28;20051;-60
2021/03/22 10:14:25;;;;;;;22.83;11.20;;;;;;;10.32;50.13;99695.59;5097823;28;20078;-60
2021/03/22 10:16:51;;;;;;;;;;;;;;;10.25;49.27;99694.00;5098614;28;20044;-60
2021/03/22 10:19:26;;;;;;;23.73;11.25;;;;;;;10.33;46.96;99691.22;5098652;28;19924;-60
2021/03/22 10:22:00;;;;;;;17.85;7.50;;;;;;;10.32;47.06;99689.50;5081600;28;20040;-60
2021/03/22 10:24:49;;;;;;;11.38;4.95;;;;;;;10.42;46.02;99693.59;5081107;28;20040;-60
2021/03/22 10:27:24;;;;;;;12.68;6.03;;;;;;;10.44;44.65;99694.44;5097887;28;20361;-60
2021/03/22 10:29:50;;;;;;;12.07;6.15;;;;;;;10.46;45.56;99698.75;5098408;28;20067;-61
2021/03/22 10:32:23;;;;;;;15.40;8.43;;;;;;;10.46;44.87;99696.13;5081123;28;20048;-60
2021/03/22 10:34:54;;;;;;;14.57;7.35;;;;;;;10.57;45.29;99695.81;5097817;28;20062;-60
2021/03/22 10:37:19;;;;;;;15.35;7.18;;;;;;;10.62;45.82;99695.69;5097401;28;20044;-60
2021/03/22 10:39:46;;;;;;;14.93;10.38;;;;;;;10.34;46.05;99701.66;5098163;28;20048;-60
2021/03/22 10:42:41;;;;;;;14.07;7.22;;;;;;;10.14;46.56;99706.50;5097087;28;20059;-59
2021/03/22 10:45:23;;;;;;;14.13;6.85;;;;;;;10.11;47.15;99703.94;5085267;28;20056;-60
2021/03/22 10:47:54;;;;;;;14.88;9.35;;;;;;;9.90;46.99;99700.97;5098287;28;20185;-58
2021/03/22 10:50:19;;;;;;;17.30;6.57;;;;;;;9.88;46.98;99712.34;5097998;28;20059;-59
2021/03/22 10:52:45;;;;;;;490.52;240.55;;;;;;;9.63;45.78;99707.72;5096850;28;20040;-60
2021/03/22 10:55:25;;;;;;;117.88;69.80;;;;;;;9.27;43.98;99717.22;5095312;28;20420;-59
2021/03/22 10:57:50;;;;;;;13.73;7.30;;;;;;;8.74;45.84;99726.97;5096200;28;20047;-59
2021/03/22 11:00:34;;;;;;;16.08;7.55;;;;;;;8.83;46.23;99727.66;5095804;28;20048;-59
2021/03/22 11:03:01;;;;;;;13.77;8.18;;;;;;;8.51;47.85;99723.03;5094860;28;20040;-59
2021/03/22 11:05:30;;;;;;;14.68;7.13;;;;;;;8.43;48.77;99712.75;5095777;28;20093;-59
2021/03/22 11:08:02;;;;;;;11.73;5.20;;;;;;;8.17;50.08;99721.00;5095559;28;20056;-58
2021/03/22 11:10:28;;;;;;;11.07;5.57;;;;;;;8.14;49.60;99728.88;5094820;28;20036;-58
2021/03/22 11:12:54;;;;;;;11.73;5.53;;;;;;;8.26;50.56;99732.19;5094647;28;20079;-58
2021/03/22 11:15:25;;;;;;;10.45;5.57;;;;;;;7.93;50.16;99724.88;5095812;28;20048;-58
2021/03/22 11:17:51;;;;;;;21.20;10.60;;;;;;;8.29;51.45;99717.31;5096936;28;20055;-58
2021/03/22 11:20:17;;;;;;;158.65;68.82;;;;;;;8.93;49.83;99728.34;5097585;28;20040;-58
2021/03/22 11:22:44;;;;;;;19.55;9.52;;;;;;;9.18;46.90;99720.88;5097131;28;20044;-58
2021/03/22 11:25:28;;;;;;;60.28;31.13;;;;;;;9.45;45.89;99724.66;5097286;28;20345;-59
2021/03/22 11:27:58;;;;;;;344.70;181.25;;;;;;;9.20;45.79;99728.72;5097563;28;20166;-59
2021/03/22 11:30:34;;;;;;;109.63;54.42;;;;;;;9.17;46.90;99727.00;5097494;28;20056;-59
2021/03/22 11:33:00;;;;;;;235.00;102.65;;;;;;;8.80;46.84;99724.25;5097347;28;20036;-59
2021/03/22 11:35:29;;;;;;;573.83;264.35;;;;;;;8.97;48.07;99726.53;5063179;28;20063;-59
2021/03/22 11:37:56;;;;;;;253.30;82.07;;;;;;;9.10;47.27;99728.03;5097373;28;20044;-59
2021/03/22 11:40:27;;;;;;;60.72;19.63;;;;;;;8.91;45.71;99730.16;5097321;28;20058;-58
2021/03/22 11:42:55;;;;;;;32.78;9.80;;;;;;;8.52;46.21;99737.84;5096190;28;20395;-59
2021/03/22 11:45:31;;;;;;;60.60;30.20;;;;;;;8.38;46.05;99731.97;5079082;28;20437;-59
2021/03/22 11:47:57;;;;;;;297.70;148.57;;;;;;;8.62;46.62;99728.94;5096245;28;20123;-59
2021/03/22 11:50:44;;;;;;;50.50;26.05;;;;;;;8.77;46.89;99730.38;5097158;28;20040;-58
2021/03/22 11:53:19;;;;;;;37.78;11.52;;;;;;;8.83;46.79;99722.44;5095880;28;20445;-59
2021/03/22 11:56:15;;;;;;;13.57;5.88;;;;;;;8.75;44.59;99728.72;5097129;28;20040;-58